Time;durP1;ratioP1;P1;durP2;ratioP2;P2;SDS_P1;SDS_P2;PMS_P1;PMS_P2;Temp;Humidity;BMP_temperature;BMP_pressure;BME280_temperature;BME280_humidity;BME280_pressure;Samples;Min_cycle;Max_cycle;Signal;HPM_P1;HPM_P2
2023/08/28 00:00:27;;;;;;;16.48;10.35;;;;;;;14.23;73.95;99411.16;4978382;28;20050;-77
2023/08/28 00:02:54;;;;;;;20.50;11.50;;;;;;;14.48;74.05;99460.97;4976245;28;20101;-76
2023/08/28 00:05:20;;;;;;;21.90;12.23;;;;;;;14.43;73.96;99455.03;4991410;28;20046;-77
2023/08/28 00:07:47;;;;;;;30.95;12.80;;;;;;;14.44;73.90;99461.97;4963473;28;20038;-75
2023/08/28 00:10:13;;;;;;;33.85;12.57;;;;;;;14.27;73.57;99437.16;4973135;28;20499;-77
2023/08/28 00:12:40;;;;;;;27.33;13.35;;;;;;;14.26;73.68;99440.69;4974588;28;20034;-76
2023/08/28 00:15:08;;;;;;;36.70;12.75;;;;;;;14.36;73.47;99456.09;4976948;28;20042;-74
2023/08/28 00:17:36;;;;;;;28.17;12.60;;;;;;;14.28;73.43;99465.06;4974532;28;20097;-74
2023/08/28 00:20:03;;;;;;;27.95;15.43;;;;;;;14.12;73.01;99440.25;4955386;28;20051;-74
2023/08/28 00:22:30;;;;;;;31.17;14.10;;;;;;;14.05;73.26;99447.41;4957007;28;20042;-76
2023/08/28 00:24:56;;;;;;;27.88;12.73;;;;;;;13.99;73.37;99443.19;4976688;28;20158;-80
2023/08/28 00:27:22;;;;;;;30.00;15.65;;;;;;;13.77;73.33;99408.09;4992509;28;20051;-75
2023/08/28 00:29:48;;;;;;;29.77;16.60;;;;;;;13.67;73.38;99412.72;4979519;28;20093;-80
2023/08/28 00:32:14;;;;;;;26.20;16.15;;;;;;;13.73;73.23;99423.03;4979797;28;20058;-72
2023/08/28 00:34:40;;;;;;;26.13;16.65;;;;;;;13.78;73.35;99434.22;4976689;28;20085;-72
2023/08/28 00:37:06;;;;;;;30.00;15.75;;;;;;;13.75;73.49;99433.44;4968849;28;20038;-74
2023/08/28 00:39:32;;;;;;;26.92;15.40;;;;;;;13.68;73.46;99454.50;4947448;28;20043;-70
2023/08/28 00:41:59;;;;;;;34.92;18.17;;;;;;;13.58;73.45;99453.06;4961835;28;20045;-74
2023/08/28 00:44:27;;;;;;;33.38;19.08;;;;;;;13.41;73.53;99437.81;4981076;28;20034;-74
2023/08/28 00:46:53;;;;;;;29.35;17.08;;;;;;;13.50;73.89;99463.72;4962437;28;20066;-70
2023/08/28 00:49:19;;;;;;;30.30;17.35;;;;;;;13.50;73.95;99461.09;4993428;28;20039;-70
2023/08/28 00:51:46;;;;;;;34.45;18.17;;;;;;;13.47;74.14;99463.78;4977880;28;20034;-73
2023/08/28 00:54:12;;;;;;;29.77;18.75;;;;;;;13.24;74.14;99419.94;4978283;28;20035;-72
2023/08/28 00:56:39;;;;;;;34.50;19.30;;;;;;;13.47;74.07;99462.91;4976549;28;20470;-71
2023/08/28 00:59:05;;;;;;;33.72;18.92;;;;;;;13.36;74.38;99450.97;4963584;28;20039;-73
2023/08/28 01:01:31;;;;;;;30.45;17.65;;;;;;;13.42;74.25;99460.44;4977197;28;20057;-70
2023/08/28 01:03:57;;;;;;;26.30;18.25;;;;;;;13.37;74.21;99459.66;4994062;28;20046;-73
2023/08/28 01:06:47;;;;;;;31.52;17.98;;;;;;;13.31;74.44;99452.00;4977467;28;20042;-69
2023/08/28 01:09:28;;;;;;;31.05;18.40;;;;;;;13.28;74.51;99449.47;4961266;28;20352;-70
2023/08/28 01:12:17;;;;;;;32.83;18.40;;;;;;;13.19;74.54;99440.94;4977186;28;20157;-69
2023/08/28 01:14:58;;;;;;;39.78;18.73;;;;;;;13.06;74.53;99427.34;4985779;28;20267;-69
2023/08/28 01:17:25;;;;;;;35.92;19.85;;;;;;;13.06;74.56;99445.63;4986883;28;20429;-70
2023/08/28 01:19:52;;;;;;;38.00;19.95;;;;;;;13.00;74.60;99444.91;4961502;28;20042;-72
2023/08/28 01:22:57;;;;;;;35.45;19.45;;;;;;;13.10;74.79;99472.53;4946583;28;20054;-72
2023/08/28 01:25:28;;;;;;;36.35;17.95;;;;;;;13.07;74.58;99473.47;4895504;29;20215;-71
2023/08/28 01:27:55;;;;;;;38.80;20.15;;;;;;;13.04;74.62;99470.06;4949639;28;20038;-70
2023/08/28 01:30:21;;;;;;;36.80;19.42;;;;;;;12.90;74.63;99463.44;4993627;28;20531;-71
2023/08/28 01:32:48;;;;;;;31.30;18.17;;;;;;;12.93;74.86;99478.16;4976940;28;20176;-71
2023/08/28 01:35:21;;;;;;;31.10;19.70;;;;;;;12.88;74.95;99473.06;4980018;28;20093;-70
2023/08/28 01:38:05;;;;;;;34.50;17.80;;;;;;;12.85;74.69;99473.13;4978515;28;20038;-73
2023/08/28 01:40:48;;;;;;;37.00;21.15;;;;;;;12.85;74.93;99480.97;4961289;28;20074;-72
2023/08/28 01:43:21;;;;;;;36.63;19.27;;;;;;;12.70;74.80;99469.13;4977491;28;20304;-73
2023/08/28 01:45:50;;;;;;;32.55;17.52;;;;;;;12.84;74.88;99486.19;4960411;28;20042;-72
2023/08/28 01:48:18;;;;;;;30.80;17.70;;;;;;;12.77;75.19;99477.66;4969771;28;20141;-72
2023/08/28 01:50:44;;;;;;;33.83;18.00;;;;;;;12.62;74.98;99458.84;4975928;28;20500;-68
2023/08/28 01:53:12;;;;;;;31.92;17.80;;;;;;;12.74;74.96;99482.94;4977870;28;20053;-71
2023/08/28 01:56:09;;;;;;;39.95;18.48;;;;;;;12.68;75.05;99493.56;4978331;28;20106;-72
2023/08/28 01:58:44;;;;;;;28.92;17.65;;;;;;;12.58;75.19;99493.75;4970066;28;20049;-72
2023/08/28 02:01:12;;;;;;;36.13;18.00;;;;;;;12.50;74.84;99490.44;4977095;28;20493;-74
2023/08/28 02:03:39;;;;;;;26.35;16.63;;;;;;;12.45;74.98;99487.94;4973378;28;20133;-71
2023/08/28 02:06:06;;;;;;;30.98;16.98;;;;;;;12.44;75.02;99490.59;4985132;28;20177;-73
2023/08/28 02:08:32;;;;;;;25.23;16.42;;;;;;;12.34;75.06;99482.94;4992842;28;20042;-72
2023/08/28 02:10:59;;;;;;;29.98;16.85;;;;;;;12.42;74.93;99495.81;4960890;28;20043;-72
2023/08/28 02:13:25;;;;;;;33.90;16.92;;;;;;;12.40;74.97;99504.59;4992731;28;20049;-70
2023/08/28 02:15:52;;;;;;;30.83;16.05;;;;;;;12.45;75.08;99505.34;4952580;28;20043;-71
2023/08/28 02:18:18;;;;;;;25.48;16.45;;;;;;;12.48;75.22;99513.09;4980772;28;21400;-73
2023/08/28 02:20:45;;;;;;;32.80;19.40;;;;;;;12.43;75.22;99499.31;4960502;28;20038;-70
2023/08/28 02:23:11;;;;;;;30.42;16.67;;;;;;;12.48;75.44;99508.75;4977609;28;20039;-72
2023/08/28 02:25:42;;;;;;;40.70;17.40;;;;;;;12.59;75.33;99511.13;4964187;28;20185;-70
2023/08/28 02:28:08;;;;;;;31.25;15.82;;;;;;;12.63;74.90;99519.72;4952713;28;20497;-72
2023/08/28 02:30:34;;;;;;;26.80;14.88;;;;;;;12.37;75.07;99479.41;4961593;28;20065;-73
2023/08/28 02:33:00;;;;;;;27.55;13.73;;;;;;;12.50;75.14;99491.31;4977726;28;20061;-73
2023/08/28 02:35:27;;;;;;;32.25;15.18;;;;;;;12.62;75.18;99504.97;4961812;28;20079;-72
2023/08/28 02:37:52;;;;;;;29.80;15.25;;;;;;;12.52;74.85;99509.53;4960727;28;20242;-72
2023/08/28 02:40:19;;;;;;;30.13;15.48;;;;;;;12.63;74.71;99525.81;4945425;28;20050;-73
2023/08/28 02:42:45;;;;;;;25.08;14.52;;;;;;;12.52;74.99;99514.75;4993443;28;20181;-71
2023/08/28 02:45:11;;;;;;;19.35;13.65;;;;;;;12.57;74.90;99510.28;4987774;28;20062;-74
2023/08/28 02:47:37;;;;;;;25.67;14.20;;;;;;;12.39;75.05;99476.78;4976655;28;20074;-72
2023/08/28 02:50:04;;;;;;;24.85;14.63;;;;;;;12.72;74.90;99516.06;4985683;28;20496;-75
2023/08/28 02:52:30;;;;;;;29.65;14.15;;;;;;;12.68;74.73;99493.56;4976820;28;20043;-74
2023/08/28 02:54:56;;;;;;;21.13;13.57;;;;;;;12.85;74.77;99520.13;4975727;28;20335;-74
2023/08/28 02:57:22;;;;;;;25.02;15.43;;;;;;;12.93;74.76;99522.56;4975229;28;20053;-75
2023/08/28 02:59:48;;;;;;;23.17;14.82;;;;;;;13.02;74.51;99514.50;4977318;28;20038;-71
2023/08/28 03:02:14;;;;;;;25.98;14.80;;;;;;;13.20;74.82;99528.88;4976258;28;20447;-75
2023/08/28 03:04:44;;;;;;;26.95;13.77;;;;;;;13.27;74.59;99511.28;4977159;28;20045;-74
2023/08/28 03:07:11;;;;;;;22.40;14.15;;;;;;;13.50;74.29;99526.44;4962449;28;20046;-72
2023/08/28 03:09:38;;;;;;;26.27;15.50;;;;;;;13.60;74.28;99528.81;4990805;28;20089;-70
2023/08/28 03:12:04;;;;;;;20.60;13.88;;;;;;;13.75;73.85;99540.63;4962181;28;20046;-72
2023/08/28 03:14:30;;;;;;;22.27;13.77;;;;;;;13.80;74.14;99529.16;4979283;28;20104;-72
2023/08/28 03:16:57;;;;;;;24.27;14.40;;;;;;;13.94;73.81;99523.56;4959293;28;20042;-70
2023/08/28 03:19:23;;;;;;;22.10;14.65;;;;;;;13.77;73.67;99492.66;4976402;28;20093;-70
2023/08/28 03:21:49;;;;;;;23.73;14.73;;;;;;;14.25;73.44;99540.16;4944055;28;20039;-72
2023/08/28 03:24:15;;;;;;;23.50;15.45;;;;;;;14.24;73.44;99512.28;4991785;28;20038;-70
2023/08/28 03:26:42;;;;;;;23.05;16.83;;;;;;;14.39;73.16;99514.47;4975282;28;20034;-69
2023/08/28 03:29:08;;;;;;;34.10;19.90;;;;;;;14.61;72.42;99537.41;4992534;28;20504;-71
2023/08/28 03:31:36;;;;;;;32.45;19.63;;;;;;;14.65;72.62;99515.47;4991200;28;20042;-70
2023/08/28 03:34:02;;;;;;;33.65;20.42;;;;;;;14.91;72.49;99526.91;4973810;28;20116;-69
2023/08/28 03:36:29;;;;;;;37.92;23.20;;;;;;;15.15;72.34;99533.16;4991322;28;20047;-69
2023/08/28 03:38:55;;;;;;;36.92;24.02;;;;;;;15.26;72.25;99530.19;4959166;28;20130;-70
2023/08/28 03:41:21;;;;;;;36.53;25.02;;;;;;;15.51;71.71;99550.34;4991175;28;20097;-70
2023/08/28 03:43:47;;;;;;;38.50;24.67;;;;;;;15.64;71.60;99541.16;4966529;28;20350;-69
2023/08/28 03:46:13;;;;;;;51.85;30.00;;;;;;;15.69;70.78;99538.38;4990852;28;20449;-71
2023/08/28 03:48:39;;;;;;;49.50;31.05;;;;;;;15.74;70.75;99536.44;4974599;28;20504;-70
2023/08/28 03:51:05;;;;;;;45.97;28.55;;;;;;;15.91;71.06;99537.66;4975236;28;20189;-70
2023/08/28 03:53:31;;;;;;;42.17;28.15;;;;;;;16.07;70.88;99537.97;4975331;28;20433;-69
2023/08/28 03:55:57;;;;;;;38.72;26.90;;;;;;;16.22;70.56;99540.03;4974522;28;20045;-71
2023/08/28 03:58:24;;;;;;;38.80;26.00;;;;;;;16.41;70.61;99545.47;4961232;28;20053;-71
2023/08/28 04:00:56;;;;;;;38.97;26.88;;;;;;;16.45;70.01;99521.75;4960542;28;20548;-73
2023/08/28 04:03:22;;;;;;;36.67;25.25;;;;;;;16.52;69.96;99507.47;4975692;28;20130;-69
2023/08/28 04:05:49;;;;;;;33.35;23.60;;;;;;;16.81;69.62;99523.84;4986143;28;20045;-69
2023/08/28 04:08:15;;;;;;;28.58;21.42;;;;;;;17.15;69.40;99538.34;4994702;28;20046;-69
2023/08/28 04:10:42;;;;;;;31.33;21.30;;;;;;;17.36;68.43;99535.75;4961513;28;20034;-70
2023/08/28 04:13:08;;;;;;;31.30;22.48;;;;;;;17.44;68.52;99515.22;4974007;28;20043;-69
2023/08/28 04:15:34;;;;;;;27.20;19.38;;;;;;;17.53;67.62;99506.97;4994549;28;20579;-68
2023/08/28 04:18:00;;;;;;;30.65;19.95;;;;;;;17.85;67.51;99517.03;4978868;28;20051;-68
2023/08/28 04:20:26;;;;;;;26.88;19.00;;;;;;;18.02;66.74;99496.09;4979389;28;20519;-70
2023/08/28 04:22:54;;;;;;;26.02;19.05;;;;;;;18.44;66.40;99517.06;4977335;28;20196;-70
2023/08/28 04:25:20;;;;;;;25.08;18.10;;;;;;;18.52;65.54;99493.88;4972300;28;20627;-71
2023/08/28 04:27:46;;;;;;;23.88;16.88;;;;;;;18.84;64.62;99502.03;4993342;28;20406;-70
2023/08/28 04:30:12;;;;;;;21.23;16.98;;;;;;;19.10;64.03;99513.13;4978548;28;20149;-71
2023/08/28 04:32:41;;;;;;;18.80;14.63;;;;;;;19.31;63.67;99505.09;4966677;28;20054;-71
2023/08/28 04:35:07;;;;;;;19.80;14.52;;;;;;;19.40;62.54;99484.41;4993263;28;20038;-72
2023/08/28 04:37:34;;;;;;;21.17;13.40;;;;;;;19.54;61.48;99473.09;4962727;28;20034;-70
2023/08/28 04:40:00;;;;;;;14.20;11.40;;;;;;;19.72;60.76;99488.94;4962850;28;20141;-71
2023/08/28 04:42:26;;;;;;;17.42;11.75;;;;;;;19.80;60.04;99492.03;4963124;28;20046;-70
2023/08/28 04:44:52;;;;;;;14.02;10.38;;;;;;;19.88;59.29;99504.00;4990475;28;20049;-69
2023/08/28 04:47:18;;;;;;;13.40;9.82;;;;;;;20.03;58.54;99511.13;4980568;28;20761;-70
2023/08/28 04:49:44;;;;;;;15.57;10.85;;;;;;;20.06;58.05;99510.13;4971372;28;20038;-70
2023/08/28 04:52:11;;;;;;;15.18;10.45;;;;;;;20.23;57.61;99514.47;4978006;28;20138;-71
2023/08/28 04:54:36;;;;;;;20.00;11.77;;;;;;;20.32;56.54;99504.28;4977762;28;20042;-70
2023/08/28 04:57:03;;;;;;;16.35;12.02;;;;;;;20.47;56.58;99502.59;4981965;28;20042;-68
2023/08/28 04:59:29;;;;;;;17.35;10.82;;;;;;;20.67;56.02;99498.00;4980860;28;20065;-68
2023/08/28 05:01:57;;;;;;;13.52;10.18;;;;;;;20.90;55.57;99493.22;4978238;28;20524;-68
2023/08/28 05:04:23;;;;;;;13.32;10.45;;;;;;;21.19;55.21;99503.94;4977401;28;20050;-69
2023/08/28 05:06:49;;;;;;;17.45;10.60;;;;;;;21.35;54.67;99498.63;4965985;28;20037;-68
2023/08/28 05:09:15;;;;;;;14.95;10.07;;;;;;;21.50;54.02;99486.28;4994541;28;20046;-69
2023/08/28 05:11:41;;;;;;;12.63;9.35;;;;;;;22.04;53.90;99503.38;4976858;28;20042;-70
2023/08/28 05:14:08;;;;;;;13.80;10.13;;;;;;;22.73;53.45;99492.94;4978347;28;20042;-70
2023/08/28 05:16:34;;;;;;;10.90;9.52;;;;;;;24.20;52.29;99488.44;4961047;28;21076;-69
2023/08/28 05:19:00;;;;;;;10.07;7.90;;;;;;;26.23;50.76;99493.03;4975459;28;20047;-70
2023/08/28 05:21:26;;;;;;;14.45;7.63;;;;;;;28.17;46.95;99493.94;4992261;28;20141;-68
2023/08/28 05:23:52;;;;;;;7.47;6.40;;;;;;;29.79;42.75;99482.09;4977097;28;20068;-68
2023/08/28 05:26:18;;;;;;;7.93;5.65;;;;;;;31.08;39.25;99479.47;4975256;28;20050;-71
2023/08/28 05:28:45;;;;;;;6.53;5.80;;;;;;;32.39;36.12;99483.19;4976730;28;20092;-68
2023/08/28 05:31:11;;;;;;;12.02;7.47;;;;;;;33.38;33.92;99477.13;4992940;28;20550;-70
2023/08/28 05:33:37;;;;;;;8.77;7.35;;;;;;;34.29;32.37;99476.91;4979130;28;20050;-67
2023/08/28 05:36:03;;;;;;;9.23;7.88;;;;;;;34.92;31.20;99459.84;4961213;28;20047;-71
2023/08/28 05:38:30;;;;;;;9.23;6.15;;;;;;;35.81;29.29;99474.63;4962458;28;20104;-67
2023/08/28 05:40:56;;;;;;;6.70;5.50;;;;;;;36.40;27.98;99483.72;4978026;28;20042;-70
2023/08/28 05:43:22;;;;;;;9.43;5.40;;;;;;;37.02;27.03;99485.06;4960338;28;20207;-67
2023/08/28 05:45:49;;;;;;;5.28;4.75;;;;;;;37.59;25.17;99459.88;4976958;28;20046;-69
2023/08/28 05:48:15;;;;;;;6.60;4.95;;;;;;;38.30;24.56;99479.69;4976892;28;20053;-69
2023/08/28 05:50:50;;;;;;;5.82;5.20;;;;;;;39.00;23.45;99464.00;4975496;28;20050;-67
2023/08/28 05:53:16;;;;;;;7.00;4.38;;;;;;;39.51;23.08;99461.69;4976312;28;20073;-68
2023/08/28 05:55:42;;;;;;;6.35;4.57;;;;;;;39.96;21.91;99457.44;4974692;28;20039;-68
2023/08/28 05:58:08;;;;;;;7.18;5.60;;;;;;;40.66;21.34;99473.06;4975073;28;20363;-67
2023/08/28 06:00:34;;;;;;;7.05;4.32;;;;;;;40.67;20.26;99463.84;4975458;28;20042;-69
2023/08/28 06:03:00;;;;;;;4.65;3.72;;;;;;;41.16;19.84;99463.28;4974790;28;20066;-68
2023/08/28 06:05:27;;;;;;;5.80;3.65;;;;;;;41.55;18.77;99477.63;4973083;28;20046;-69
2023/08/28 06:07:53;;;;;;;3.70;3.30;;;;;;;42.00;17.88;99471.06;4976120;28;20105;-70
2023/08/28 06:10:19;;;;;;;7.13;3.80;;;;;;;41.52;16.86;99478.09;4975671;28;20335;-70
2023/08/28 06:12:47;;;;;;;6.38;3.70;;;;;;;41.69;16.92;99473.69;4976556;28;20038;-67
2023/08/28 06:15:16;;;;;;;7.32;3.42;;;;;;;42.34;16.63;99456.97;4973908;28;20050;-68
2023/08/28 06:17:45;;;;;;;4.57;3.97;;;;;;;42.73;15.75;99479.34;4975044;28;20142;-75
2023/08/28 06:20:12;;;;;;;4.28;3.80;;;;;;;43.01;15.98;99461.47;4980479;28;20043;-71
2023/08/28 06:22:38;;;;;;;6.53;3.80;;;;;;;43.40;15.46;99464.63;4975971;28;20100;-71
2023/08/28 06:25:05;;;;;;;6.57;3.55;;;;;;;43.59;15.33;99454.38;4993064;28;20034;-70
2023/08/28 06:27:31;;;;;;;7.38;4.40;;;;;;;44.39;14.51;99462.88;4977703;28;20592;-71
2023/08/28 06:29:57;;;;;;;7.82;3.60;;;;;;;45.20;14.47;99473.91;4977976;28;20171;-70
2023/08/28 06:32:23;;;;;;;5.93;3.90;;;;;;;45.33;13.84;99464.50;4973781;28;20042;-69
2023/08/28 06:34:49;;;;;;;6.30;3.58;;;;;;;45.90;13.15;99470.78;4976311;28;20053;-69
2023/08/28 06:37:15;;;;;;;4.78;3.75;;;;;;;46.11;13.32;99469.16;4975455;28;20034;-70
2023/08/28 06:39:41;;;;;;;5.15;3.85;;;;;;;46.58;12.70;99468.53;4990513;28;20049;-72
2023/08/28 06:42:07;;;;;;;4.05;3.30;;;;;;;47.13;12.55;99470.38;4975528;28;21076;-71
2023/08/28 06:44:34;;;;;;;5.65;3.65;;;;;;;47.50;12.12;99470.38;4959537;28;20038;-70
2023/08/28 06:47:01;;;;;;;4.05;3.20;;;;;;;47.80;11.88;99468.06;4986998;28;20053;-71
2023/08/28 06:49:27;;;;;;;4.22;3.60;;;;;;;48.03;11.67;99449.41;4974732;28;20495;-72
2023/08/28 06:51:53;;;;;;;5.63;3.70;;;;;;;48.35;11.32;99435.47;4974557;28;20047;-67
2023/08/28 06:54:19;;;;;;;6.40;3.97;;;;;;;48.73;11.01;99449.03;4978557;28;20074;-70
2023/08/28 06:56:52;;;;;;;4.03;3.63;;;;;;;49.08;10.88;99458.41;4968558;28;20129;-74
2023/08/28 06:59:18;;;;;;;7.18;3.85;;;;;;;48.99;10.77;99438.81;4984901;28;20042;-69
2023/08/28 07:01:44;;;;;;;4.00;3.50;;;;;;;49.30;10.22;99452.56;4976929;28;20124;-75
2023/08/28 07:04:11;;;;;;;4.28;3.47;;;;;;;49.32;10.69;99476.31;4960161;28;20042;-70
2023/08/28 07:06:36;;;;;;;4.55;3.70;;;;;;;49.52;10.00;99475.47;4975288;28;20043;-73
2023/08/28 07:09:03;;;;;;;5.68;3.80;;;;;;;49.30;10.23;99479.38;4973183;28;20041;-73
2023/08/28 07:11:29;;;;;;;4.15;3.53;;;;;;;48.92;10.29;99476.06;4975784;28;20046;-74
2023/08/28 07:13:58;;;;;;;4.05;3.53;;;;;;;49.39;9.92;99469.38;4975856;28;20049;-70
2023/08/28 07:16:25;;;;;;;4.82;3.60;;;;;;;49.76;9.87;99472.06;4975636;28;20117;-74
2023/08/28 07:18:51;;;;;;;4.93;3.67;;;;;;;50.08;9.80;99463.38;4978740;28;20050;-74
2023/08/28 07:21:20;;;;;;;4.57;3.50;;;;;;;49.95;9.68;99470.34;4993471;28;20041;-78
2023/08/28 07:23:46;;;;;;;3.90;3.60;;;;;;;48.17;10.21;99469.88;4953742;28;20042;-75
2023/08/28 07:26:13;;;;;;;5.90;3.72;;;;;;;47.32;10.32;99433.13;4974954;28;20038;-70
2023/08/28 07:28:39;;;;;;;4.45;3.25;;;;;;;47.59;10.56;99467.97;4974882;28;20130;-79
2023/08/28 07:31:05;;;;;;;4.53;3.22;;;;;;;48.68;10.02;99468.31;4985742;28;20054;-79
2023/08/28 07:33:31;;;;;;;6.13;3.30;;;;;;;49.09;9.88;99471.13;4975308;28;20058;-77
2023/08/28 07:35:57;;;;;;;4.20;3.22;;;;;;;48.94;9.74;99452.63;4955612;28;20086;-79
2023/08/28 07:38:23;;;;;;;4.97;3.22;;;;;;;49.18;10.02;99440.16;4973020;28;20046;-78
2023/08/28 07:40:50;;;;;;;4.03;3.20;;;;;;;49.97;9.46;99445.16;4955757;28;20046;-76
2023/08/28 07:43:16;;;;;;;3.92;3.30;;;;;;;50.46;8.70;99440.72;4972997;28;20050;-77
2023/08/28 07:45:42;;;;;;;6.82;3.30;;;;;;;50.50;9.03;99452.88;4971564;28;20130;-78
2023/08/28 07:48:08;;;;;;;3.40;3.10;;;;;;;50.46;9.03;99440.72;4972051;28;20046;-78
2023/08/28 07:50:34;;;;;;;3.92;3.53;;;;;;;50.73;8.42;99450.50;4987969;28;20129;-77
2023/08/28 07:53:00;;;;;;;4.53;3.53;;;;;;;51.30;8.48;99447.22;4951109;28;20417;-77
2023/08/28 07:55:26;;;;;;;4.30;3.53;;;;;;;51.28;8.45;99422.56;4970023;28;20563;-78
2023/08/28 07:57:53;;;;;;;3.92;3.60;;;;;;;51.59;8.18;99426.94;4969498;28;20035;-76
2023/08/28 08:00:21;;;;;;;4.13;3.80;;;;;;;52.07;8.30;99426.84;4980704;28;20622;-76
2023/08/28 08:02:48;;;;;;;5.65;3.53;;;;;;;52.46;7.80;99426.84;4983851;28;20100;-80
2023/08/28 08:05:14;;;;;;;5.45;3.97;;;;;;;52.80;7.60;99442.38;4971673;28;20482;-78
2023/08/28 08:07:40;;;;;;;3.97;3.58;;;;;;;52.77;7.42;99420.78;4971401;28;20070;-80
2023/08/28 08:10:08;;;;;;;3.70;3.38;;;;;;;52.64;7.90;99448.19;4974196;28;20131;-76
2023/08/28 08:12:48;;;;;;;3.70;3.40;;;;;;;53.11;7.59;99458.47;4972446;28;20076;-80
2023/08/28 08:15:27;;;;;;;4.90;3.90;;;;;;;52.95;7.34;99456.00;4965788;28;20044;-75
2023/08/28 08:17:53;;;;;;;3.70;3.33;;;;;;;53.07;7.48;99441.63;4965508;28;20058;-72
2023/08/28 08:20:20;;;;;;;3.75;3.45;;;;;;;53.70;7.37;99449.59;4970650;28;20049;-80
2023/08/28 08:22:46;;;;;;;4.18;3.28;;;;;;;53.57;6.82;99454.81;4978752;28;20281;-75
2023/08/28 08:25:13;;;;;;;5.28;3.60;;;;;;;50.13;7.96;99460.53;4969748;28;20497;-78
2023/08/28 08:27:39;;;;;;;3.60;3.22;;;;;;;46.60;9.57;99452.59;4987798;28;20039;-76
2023/08/28 08:30:09;;;;;;;3.63;3.33;;;;;;;44.42;10.94;99447.84;4957862;28;20046;-72
2023/08/28 08:32:35;;;;;;;;;;;;;;;42.95;11.64;99452.31;4974838;28;20043;-71
2023/08/28 08:35:01;;;;;;;3.90;3.60;;;;;;;42.63;12.49;99443.56;4979698;28;19929;-72
2023/08/28 08:37:28;;;;;;;4.55;3.75;;;;;;;44.82;11.63;99441.44;4981330;28;20480;-78
2023/08/28 08:39:57;;;;;;;4.65;3.30;;;;;;;47.12;10.31;99447.53;4994059;28;20042;-71
2023/08/28 08:42:27;;;;;;;3.60;3.30;;;;;;;47.43;10.08;99411.13;4985591;28;20053;-75
2023/08/28 08:44:53;;;;;;;4.60;3.38;;;;;;;45.47;10.34;99448.47;4987978;28;20765;-79
2023/08/28 08:47:21;;;;;;;4.47;3.00;;;;;;;42.76;11.79;99437.88;4978248;28;20070;-77
2023/08/28 08:49:52;;;;;;;3.50;3.13;;;;;;;40.79;12.89;99456.59;4990561;28;20096;-74
2023/08/28 08:52:21;;;;;;;5.03;3.13;;;;;;;39.29;14.30;99440.16;4974501;28;20049;-73
2023/08/28 08:54:55;;;;;;;10.13;3.20;;;;;;;40.90;13.71;99443.31;4991429;28;20083;-72
2023/08/28 08:57:36;;;;;;;3.78;3.20;;;;;;;43.34;12.83;99436.31;4961472;28;20046;-72
2023/08/28 09:00:04;;;;;;;3.30;3.05;;;;;;;44.32;11.81;99425.75;4960489;28;20049;-76
2023/08/28 09:02:32;;;;;;;3.58;3.22;;;;;;;42.96;12.35;99412.97;4974915;28;20050;-72
2023/08/28 09:04:58;;;;;;;4.50;3.20;;;;;;;41.05;13.42;99424.72;4979064;28;20034;-72
2023/08/28 09:07:26;;;;;;;4.15;3.20;;;;;;;41.49;13.57;99421.19;4977933;28;20058;-71
2023/08/28 09:09:52;;;;;;;3.55;3.25;;;;;;;41.91;13.06;99429.56;4961452;28;20440;-74
2023/08/28 09:12:18;;;;;;;3.58;3.17;;;;;;;41.05;13.68;99408.38;4976829;28;20061;-74
2023/08/28 09:14:45;;;;;;;4.10;3.10;;;;;;;41.11;13.77;99406.66;4977451;28;20038;-74
2023/08/28 09:17:11;;;;;;;6.30;3.35;;;;;;;40.29;14.21;99401.97;4979415;28;20058;-74
2023/08/28 09:19:37;;;;;;;4.63;3.30;;;;;;;39.80;14.42;99404.28;4976910;28;20564;-72
2023/08/28 09:22:03;;;;;;;3.70;2.75;;;;;;;38.54;15.64;99397.66;4994343;28;20038;-73
2023/08/28 09:24:30;;;;;;;3.55;3.25;;;;;;;37.05;15.77;99402.50;4985422;28;20046;-77
2023/08/28 09:27:01;;;;;;;4.18;3.20;;;;;;;35.65;17.49;99425.06;4977665;28;20047;-74
2023/08/28 09:29:27;;;;;;;4.15;3.67;;;;;;;35.40;17.78;99409.09;4992990;28;20052;-74
2023/08/28 09:32:02;;;;;;;3.95;3.33;;;;;;;35.10;17.88;99413.59;4977353;28;20153;-72
2023/08/28 09:34:43;;;;;;;8.80;7.07;;;;;;;35.81;17.79;99402.38;4993534;28;20133;-75
2023/08/28 09:37:12;;;;;;;5.53;3.60;;;;;;;36.20;17.78;99416.66;4977374;28;20047;-80
2023/08/28 09:39:55;;;;;;;4.20;3.58;;;;;;;35.65;17.83;99416.94;4959438;28;20532;-79
2023/08/28 09:42:24;;;;;;;5.15;3.70;;;;;;;35.05;18.53;99416.03;4972817;28;20070;-82
2023/08/28 09:44:51;;;;;;;5.68;3.40;;;;;;;34.52;18.96;99414.88;4967825;28;20038;-77
2023/08/28 09:47:23;;;;;;;5.65;3.75;;;;;;;34.10;19.01;99418.78;4992515;28;20049;-77
2023/08/28 09:49:51;;;;;;;3.83;3.53;;;;;;;33.67;19.35;99394.84;4997702;28;20055;-79
2023/08/28 09:52:27;;;;;;;5.68;3.72;;;;;;;32.73;20.20;99374.56;4980122;28;20050;-78
2023/08/28 09:55:07;;;;;;;4.30;3.47;;;;;;;32.02;21.00;99430.56;4987448;28;20817;-81
2023/08/28 09:57:33;;;;;;;5.07;3.75;;;;;;;31.53;21.89;99434.63;4972060;28;20134;-78
2023/08/28 10:00:02;;;;;;;4.82;3.65;;;;;;;30.99;22.63;99429.34;4977853;28;20081;-76
2023/08/28 10:02:32;;;;;;;4.10;3.58;;;;;;;30.55;23.20;99432.78;4975382;28;20042;-80
2023/08/28 10:04:59;;;;;;;6.45;3.78;;;;;;;30.20;23.68;99431.72;4980725;28;20042;-78
2023/08/28 10:07:28;;;;;;;4.93;3.70;;;;;;;29.65;24.26;99390.47;4954088;28;20509;-83
2023/08/28 10:09:58;;;;;;;4.15;3.47;;;;;;;29.78;24.75;99429.47;4959336;28;20070;-77
2023/08/28 10:12:26;;;;;;;6.15;3.63;;;;;;;29.41;24.72;99407.88;4979857;28;20097;-86
2023/08/28 10:14:53;;;;;;;5.47;3.60;;;;;;;29.39;25.02;99409.88;4985093;28;20057;-82
2023/08/28 10:17:25;;;;;;;7.55;3.55;;;;;;;30.70;24.57;99441.16;4967922;28;20043;-84
2023/08/28 10:20:36;;;;;;;4.05;3.40;;;;;;;33.06;22.37;99435.69;4960845;28;20042;-78
2023/08/28 10:23:04;;;;;;;4.93;3.30;;;;;;;33.19;21.89;99421.72;4992963;28;20042;-81
2023/08/28 10:25:30;;;;;;;3.70;3.40;;;;;;;32.39;21.87;99407.81;4964685;28;20516;-79
2023/08/28 10:28:04;;;;;;;3.70;3.28;;;;;;;31.47;22.69;99399.50;4994285;28;20409;-79
2023/08/28 10:30:36;;;;;;;4.65;3.50;;;;;;;30.49;23.61;99414.59;4977427;28;20042;-80
2023/08/28 10:33:05;;;;;;;4.97;3.88;;;;;;;30.05;24.15;99426.84;4974328;28;20433;-79
2023/08/28 10:35:32;;;;;;;4.35;3.90;;;;;;;29.49;25.15;99422.38;4974736;28;20038;-82
2023/08/28 10:38:01;;;;;;;6.20;3.40;;;;;;;28.99;25.72;99429.63;4979760;28;20038;-79
2023/08/28 10:40:27;;;;;;;4.88;3.92;;;;;;;28.68;26.35;99452.00;4976460;28;20584;-80
2023/08/28 10:42:54;;;;;;;4.15;3.78;;;;;;;28.28;26.99;99418.09;4977433;28;20716;-82
2023/08/28 10:45:21;;;;;;;4.43;3.95;;;;;;;27.99;26.55;99431.38;4992546;28;20555;-81
2023/08/28 10:47:50;;;;;;;4.90;4.20;;;;;;;27.89;27.42;99448.22;4972288;28;20097;-77
2023/08/28 10:50:17;;;;;;;6.68;4.05;;;;;;;27.94;27.55;99437.94;4975469;28;20085;-86
2023/08/28 10:52:45;;;;;;;4.05;3.70;;;;;;;27.99;27.98;99447.41;4992770;28;20045;-79
2023/08/28 10:55:22;;;;;;;5.22;3.90;;;;;;;27.92;28.13;99420.38;4979937;28;20045;-82
2023/08/28 10:57:52;;;;;;;4.68;3.70;;;;;;;28.25;27.75;99451.34;4987893;28;20051;-83
2023/08/28 11:00:18;;;;;;;4.28;3.83;;;;;;;28.29;27.51;99435.84;4996472;28;20049;-81
2023/08/28 11:03:14;;;;;;;6.50;3.72;;;;;;;28.35;27.71;99434.47;4962497;28;20089;-82
2023/08/28 11:05:42;;;;;;;5.57;4.45;;;;;;;28.29;27.33;99429.66;4981165;28;20043;-86
2023/08/28 11:08:11;;;;;;;4.93;4.15;;;;;;;28.21;27.55;99455.25;4978191;28;20452;-85
2023/08/28 11:10:40;;;;;;;4.32;3.80;;;;;;;27.98;28.14;99443.03;4991804;28;20054;-82
2023/08/28 11:13:11;;;;;;;4.25;3.85;;;;;;;27.70;28.53;99456.13;4987554;28;21567;-79
2023/08/28 11:15:42;;;;;;;4.63;3.55;;;;;;;26.84;29.19;99383.19;4993675;28;20042;-82
2023/08/28 11:18:25;;;;;;;4.57;3.92;;;;;;;27.05;29.59;99419.72;4992731;28;20548;-82
2023/08/28 11:20:54;;;;;;;5.82;4.45;;;;;;;27.08;29.31;99434.63;4964865;28;20124;-79
2023/08/28 11:23:37;;;;;;;4.28;3.88;;;;;;;27.22;29.61;99439.66;4976973;28;20038;-80
2023/08/28 11:26:25;;;;;;;4.93;3.88;;;;;;;27.55;29.33;99448.47;4980957;28;20065;-85
2023/08/28 11:28:54;;;;;;;4.97;3.53;;;;;;;27.49;29.05;99390.22;4958481;28;20407;-81
2023/08/28 11:31:20;;;;;;;5.32;4.30;;;;;;;27.70;28.87;99398.19;4988128;28;20289;-76